Time;durP1;ratioP1;P1;durP2;ratioP2;P2;SDS_P1;SDS_P2;PMS_P1;PMS_P2;Temp;Humidity;BMP_temperature;BMP_pressure;BME280_temperature;BME280_humidity;BME280_pressure;Samples;Min_cycle;Max_cycle;Signal;HPM_P1;HPM_P2
2022/03/12 00:03:13;;;;;;;4.25;3.28;;;19.40;64.60;;;;;;7840647;28;20221;-47
2022/03/12 00:06:59;;;;;;;4.82;3.30;;;19.40;64.60;;;;;;7839880;28;20572;-45
2022/03/12 00:10:46;;;;;;;4.47;3.28;;;19.40;64.50;;;;;;7840056;28;20182;-44
2022/03/12 00:14:36;;;;;;;4.45;2.92;;;19.40;64.60;;;;;;7840440;28;20300;-47
2022/03/12 00:18:21;;;;;;;4.85;3.50;;;19.40;64.60;;;;;;7840679;28;20178;-47
2022/03/12 00:22:08;;;;;;;3.88;2.90;;;19.40;64.50;;;;;;7840226;28;20202;-47
2022/03/12 00:25:54;;;;;;;4.00;3.30;;;19.30;64.50;;;;;;7840285;28;20197;-47
2022/03/12 00:29:41;;;;;;;6.85;3.28;;;19.30;64.40;;;;;;7839883;28;20253;-47
2022/03/12 00:33:27;;;;;;;3.95;3.10;;;19.40;64.40;;;;;;7839729;28;20197;-45
2022/03/12 00:37:13;;;;;;;5.00;3.42;;;19.30;64.40;;;;;;7839868;28;20170;-46
2022/03/12 00:41:02;;;;;;;4.55;3.15;;;19.30;64.40;;;;;;7839447;28;20265;-46
2022/03/12 00:44:47;;;;;;;4.72;3.25;;;19.30;64.10;;;;;;7839630;28;20213;-46
2022/03/12 00:48:34;;;;;;;4.55;3.13;;;19.20;64.10;;;;;;7839987;28;20182;-46
2022/03/12 00:52:20;;;;;;;4.40;3.35;;;19.20;64.10;;;;;;7839850;28;20194;-46
2022/03/12 00:56:07;;;;;;;4.43;3.28;;;19.20;64.10;;;;;;7839326;28;20178;-46
2022/03/12 00:59:52;;;;;;;5.18;3.38;;;19.20;64.00;;;;;;7839001;28;20174;-46
2022/03/12 01:03:39;;;;;;;5.18;3.47;;;19.20;63.90;;;;;;7838887;28;20225;-45
2022/03/12 01:07:24;;;;;;;4.78;3.15;;;19.20;64.00;;;;;;7838283;28;20513;-45
2022/03/12 01:11:10;;;;;;;7.30;3.40;;;19.10;63.80;;;;;;7838442;28;20174;-45
2022/03/12 01:14:56;;;;;;;5.07;3.38;;;19.10;63.80;;;;;;7838584;28;20198;-45
2022/03/12 01:18:42;;;;;;;5.18;3.22;;;19.10;63.80;;;;;;7838288;28;20178;-46
2022/03/12 01:22:29;;;;;;;6.72;3.67;;;19.10;63.80;;;;;;7838133;28;20186;-46
2022/03/12 01:26:16;;;;;;;4.53;3.40;;;19.10;63.50;;;;;;7838350;28;20589;-48
2022/03/12 01:30:04;;;;;;;4.22;3.28;;;19.00;63.70;;;;;;7838176;28;20166;-46
2022/03/12 01:33:50;;;;;;;4.93;3.28;;;19.00;63.40;;;;;;7837918;28;20217;-46
2022/03/12 01:37:36;;;;;;;4.55;3.25;;;19.00;63.70;;;;;;7838305;28;20178;-45
2022/03/12 01:41:26;;;;;;;5.75;3.60;;;19.00;63.60;;;;;;7837863;28;20213;-46
2022/03/12 01:45:12;;;;;;;5.25;3.30;;;18.90;63.90;;;;;;7838520;28;20196;-47
2022/03/12 01:48:59;;;;;;;4.00;2.97;;;18.90;63.70;;;;;;7838692;28;20186;-46
2022/03/12 01:52:45;;;;;;;5.43;3.63;;;18.90;63.80;;;;;;7838070;28;20240;-47
2022/03/12 01:56:31;;;;;;;4.03;3.15;;;18.90;63.70;;;;;;7838494;28;20217;-47
2022/03/12 02:00:26;;;;;;;6.68;2.97;;;18.90;63.60;;;;;;7838474;28;20181;-49
2022/03/12 02:04:12;;;;;;;4.68;3.13;;;18.80;63.50;;;;;;7838048;28;20217;-46
2022/03/12 02:07:58;;;;;;;3.63;3.10;;;18.90;63.70;;;;;;7838012;28;20220;-47
2022/03/12 02:11:51;;;;;;;4.65;3.40;;;18.80;63.40;;;;;;7837721;28;20702;-47
2022/03/12 02:15:36;;;;;;;5.60;3.45;;;18.80;63.60;;;;;;7837810;28;20206;-47
2022/03/12 02:19:25;;;;;;;6.45;3.25;;;18.80;63.70;;;;;;7837520;28;20174;-46
2022/03/12 02:23:10;;;;;;;4.65;3.08;;;18.70;63.50;;;;;;7837697;28;20198;-46
2022/03/12 02:26:58;;;;;;;5.15;3.40;;;18.70;63.50;;;;;;7837521;28;20170;-46
2022/03/12 02:30:55;;;;;;;3.83;3.08;;;18.70;63.60;;;;;;7838129;28;20652;-48
2022/03/12 02:34:46;;;;;;;4.38;3.35;;;18.70;63.70;;;;;;7843445;28;20274;-47
2022/03/12 02:38:34;;;;;;;4.57;3.33;;;18.70;63.50;;;;;;7843544;28;20266;-49
2022/03/12 02:42:21;;;;;;;4.15;3.05;;;18.60;63.50;;;;;;7842894;28;20186;-47
2022/03/12 02:46:07;;;;;;;4.60;3.47;;;18.60;63.50;;;;;;7842978;28;20593;-47
2022/03/12 02:49:56;;;;;;;5.88;3.45;;;18.60;63.40;;;;;;7842873;28;20229;-46
2022/03/12 02:53:41;;;;;;;4.43;2.88;;;18.60;63.40;;;;;;7843587;28;20232;-46
2022/03/12 02:57:28;;;;;;;3.42;2.70;;;18.60;63.70;;;;;;7842832;28;20188;-46
2022/03/12 03:01:14;;;;;;;5.75;3.10;;;18.60;63.40;;;;;;7842189;28;20178;-46
2022/03/12 03:04:59;;;;;;;4.63;3.28;;;18.50;63.60;;;;;;7842696;28;20186;-45
2022/03/12 03:08:45;;;;;;;4.35;3.10;;;18.50;63.60;;;;;;7842478;28;20186;-45
2022/03/12 03:12:31;;;;;;;4.15;3.17;;;18.50;63.40;;;;;;7842043;28;20202;-46
2022/03/12 03:16:24;;;;;;;5.78;3.30;;;18.50;63.60;;;;;;7842324;28;20273;-46
2022/03/12 03:20:10;;;;;;;6.20;3.08;;;18.40;63.50;;;;;;7841836;28;20188;-46
2022/03/12 03:23:56;;;;;;;4.78;3.47;;;18.50;63.40;;;;;;7841827;28;20293;-45
2022/03/12 03:27:41;;;;;;;3.88;2.70;;;18.40;63.40;;;;;;7841824;28;20178;-46
2022/03/12 03:31:27;;;;;;;6.82;3.25;;;18.40;63.50;;;;;;7841429;28;20243;-45
2022/03/12 03:35:12;;;;;;;5.35;3.30;;;18.40;63.40;;;;;;7841542;28;20206;-47
2022/03/12 03:38:58;;;;;;;4.95;3.10;;;18.40;63.60;;;;;;7841412;28;20204;-46
2022/03/12 03:42:44;;;;;;;5.53;2.90;;;18.30;63.40;;;;;;7840743;28;20702;-46
2022/03/12 03:46:29;;;;;;;6.40;3.22;;;18.30;63.50;;;;;;7841361;28;20638;-45
2022/03/12 03:50:15;;;;;;;4.55;3.22;;;18.30;63.40;;;;;;7841561;28;20524;-45
2022/03/12 03:54:00;;;;;;;4.38;3.00;;;18.30;63.40;;;;;;7841010;28;20202;-46
2022/03/12 03:57:46;;;;;;;6.32;2.70;;;18.30;63.50;;;;;;7840967;28;20174;-46
2022/03/12 04:01:32;;;;;;;3.88;2.92;;;18.30;63.50;;;;;;7840441;28;20202;-49
2022/03/12 04:05:17;;;;;;;4.32;3.10;;;18.20;63.50;;;;;;7840898;28;20648;-45
2022/03/12 04:09:03;;;;;;;5.00;3.00;;;18.30;63.50;;;;;;7840791;28;20174;-45
2022/03/12 04:12:48;;;;;;;4.43;3.15;;;18.20;63.30;;;;;;7840532;28;20193;-47
2022/03/12 04:16:34;;;;;;;5.45;3.03;;;18.20;63.40;;;;;;7840755;28;20174;-46
2022/03/12 04:20:20;;;;;;;5.22;3.42;;;18.20;63.20;;;;;;7840158;28;20170;-47
2022/03/12 04:24:06;;;;;;;4.82;3.30;;;18.20;63.60;;;;;;7840279;28;20543;-47
2022/03/12 04:27:52;;;;;;;5.35;3.10;;;18.20;63.60;;;;;;7840274;28;20178;-48
2022/03/12 04:31:37;;;;;;;3.97;2.80;;;18.10;63.40;;;;;;7839646;28;20209;-46
2022/03/12 04:35:23;;;;;;;4.35;3.10;;;18.10;63.20;;;;;;7839869;28;20267;-47
2022/03/12 04:39:10;;;;;;;4.05;2.85;;;18.10;63.50;;;;;;7839521;28;20178;-47
2022/03/12 04:42:56;;;;;;;5.13;3.03;;;18.10;63.20;;;;;;7839477;28;20679;-46
2022/03/12 04:46:41;;;;;;;4.55;2.90;;;18.00;63.20;;;;;;7839662;28;20617;-46
2022/03/12 04:50:27;;;;;;;4.30;3.20;;;18.10;63.40;;;;;;7839722;28;20232;-47
2022/03/12 04:54:12;;;;;;;3.83;2.63;;;18.00;63.00;;;;;;7839044;28;20205;-47
2022/03/12 04:57:58;;;;;;;4.53;2.90;;;18.00;63.00;;;;;;7839959;28;20206;-48
2022/03/12 05:01:43;;;;;;;4.63;3.28;;;18.00;63.20;;;;;;7838651;28;20214;-46
2022/03/12 05:05:30;;;;;;;4.07;2.90;;;17.90;63.10;;;;;;7839052;28;20174;-45
2022/03/12 05:09:15;;;;;;;5.65;3.30;;;17.90;63.10;;;;;;7838585;28;20189;-46
2022/03/12 05:13:01;;;;;;;5.95;3.42;;;17.90;62.90;;;;;;7838644;28;20706;-46
2022/03/12 05:16:48;;;;;;;3.88;2.58;;;17.90;62.90;;;;;;7839248;28;20174;-47
2022/03/12 05:20:36;;;;;;;5.63;3.10;;;17.90;63.00;;;;;;7838455;28;20196;-46
2022/03/12 05:24:21;;;;;;;3.72;2.90;;;17.90;62.90;;;;;;7838195;28;20267;-46
2022/03/12 05:28:08;;;;;;;9.57;2.97;;;17.90;62.80;;;;;;7849680;28;20189;-46
2022/03/12 05:31:53;;;;;;;6.32;3.13;;;17.80;62.60;;;;;;7837297;28;20197;-46
2022/03/12 05:35:41;;;;;;;7.00;2.85;;;17.90;63.30;;;;;;7837420;28;20209;-47
2022/03/12 05:39:27;;;;;;;4.70;3.05;;;17.80;63.30;;;;;;7837183;28;20170;-46
2022/03/12 05:43:15;;;;;;;5.47;2.67;;;17.80;63.00;;;;;;7837077;28;20209;-45
2022/03/12 05:47:03;;;;;;;3.90;2.70;;;17.70;63.60;;;;;;7837480;28;20643;-47
2022/03/12 05:50:49;;;;;;;5.63;2.42;;;17.80;63.10;;;;;;7837289;28;20182;-46
2022/03/12 05:54:35;;;;;;;4.10;2.72;;;17.70;63.70;;;;;;7837484;28;20327;-46
2022/03/12 05:58:21;;;;;;;4.03;2.50;;;17.70;63.70;;;;;;7837891;28;20170;-46
2022/03/12 06:02:06;;;;;;;5.10;2.90;;;17.80;63.40;;;;;;7837484;28;20587;-47
2022/03/12 06:05:56;;;;;;;4.22;2.72;;;17.70;63.60;;;;;;7841065;28;20174;-45
2022/03/12 06:09:41;;;;;;;3.53;2.70;;;17.70;63.80;;;;;;7860061;28;20219;-46
2022/03/12 06:13:29;;;;;;;4.68;2.45;;;17.70;63.90;;;;;;7875129;28;20258;-46
2022/03/12 06:17:14;;;;;;;6.75;3.05;;;17.70;63.70;;;;;;7863629;28;20182;-45
2022/03/12 06:21:02;;;;;;;4.00;2.60;;;17.60;64.00;;;;;;7861964;28;20204;-45
2022/03/12 06:24:49;;;;;;;3.67;2.70;;;17.70;63.90;;;;;;7846569;28;20198;-45
2022/03/12 06:28:36;;;;;;;3.72;2.70;;;17.60;64.70;;;;;;7843258;28;20190;-46
2022/03/12 06:32:22;;;;;;;4.85;2.63;;;17.60;64.00;;;;;;7842878;28;20236;-46
2022/03/12 06:36:09;;;;;;;3.65;2.63;;;17.60;64.20;;;;;;7842515;28;20217;-46
2022/03/12 06:39:55;;;;;;;4.32;2.42;;;17.60;63.90;;;;;;7842647;28;20280;-46
2022/03/12 06:43:42;;;;;;;3.13;2.42;;;17.60;64.10;;;;;;7843117;28;20613;-49
2022/03/12 06:47:29;;;;;;;4.63;2.60;;;17.60;63.80;;;;;;7843086;28;20186;-48
2022/03/12 06:51:15;;;;;;;3.08;2.65;;;17.60;63.80;;;;;;7842557;28;20532;-49
2022/03/12 06:55:01;;;;;;;4.13;2.60;;;17.50;64.10;;;;;;7842295;28;20301;-47
2022/03/12 06:58:46;;;;;;;6.82;2.78;;;17.50;64.00;;;;;;7848089;28;20223;-47
2022/03/12 07:02:32;;;;;;;6.00;2.58;;;17.60;63.60;;;;;;7871093;28;20559;-46
2022/03/12 07:06:18;;;;;;;6.70;3.00;;;17.50;63.90;;;;;;7867711;28;20618;-46
2022/03/12 07:10:06;;;;;;;3.95;2.78;;;17.50;64.20;;;;;;7866709;28;20207;-45
2022/03/12 07:13:52;;;;;;;9.27;3.42;;;17.50;64.40;;;;;;7841659;28;20293;-46
2022/03/12 07:17:37;;;;;;;4.93;2.95;;;17.50;64.40;;;;;;7841416;28;20170;-46
2022/03/12 07:21:24;;;;;;;5.20;3.13;;;17.50;64.20;;;;;;7841750;28;20178;-47
2022/03/12 07:25:11;;;;;;;6.60;2.70;;;17.50;64.10;;;;;;7841897;28;20662;-45
2022/03/12 07:28:56;;;;;;;6.60;2.70;;;17.40;64.00;;;;;;7841824;28;20713;-47
2022/03/12 07:32:43;;;;;;;7.65;2.47;;;17.40;63.90;;;;;;7841181;28;20554;-46
2022/03/12 07:36:29;;;;;;;5.70;2.75;;;17.40;63.90;;;;;;7840915;28;20178;-45
2022/03/12 07:40:15;;;;;;;8.02;3.05;;;17.40;63.70;;;;;;7840868;28;20286;-46
2022/03/12 07:44:00;;;;;;;20.73;3.08;;;17.40;63.20;;;;;;7841093;28;20230;-46
2022/03/12 07:47:47;;;;;;;16.00;3.25;;;17.40;63.50;;;;;;7841190;28;20523;-45
2022/03/12 07:51:33;;;;;;;12.77;3.30;;;17.40;63.80;;;;;;7840688;28;20209;-46
2022/03/12 07:55:18;;;;;;;20.25;3.80;;;17.40;63.50;;;;;;7841038;28;20244;-47
2022/03/12 07:59:04;;;;;;;21.02;3.50;;;17.40;63.10;;;;;;7841053;28;20181;-46
2022/03/12 08:02:50;;;;;;;19.13;3.30;;;17.40;63.20;;;;;;7840839;28;20288;-47
2022/03/12 08:06:36;;;;;;;10.25;3.45;;;17.40;63.50;;;;;;7841010;28;20268;-47
2022/03/12 08:10:22;;;;;;;12.75;3.13;;;17.40;63.50;;;;;;7840835;28;20178;-47
2022/03/12 08:14:09;;;;;;;8.68;3.30;;;17.40;63.50;;;;;;7840752;28;20205;-47
2022/03/12 08:17:54;;;;;;;9.07;3.58;;;17.40;63.20;;;;;;7840846;28;20260;-46
2022/03/12 08:21:40;;;;;;;10.32;3.40;;;17.40;63.00;;;;;;7840099;28;20198;-49
2022/03/12 08:25:25;;;;;;;13.02;3.15;;;17.40;62.90;;;;;;7839899;28;20194;-46
2022/03/12 08:29:14;;;;;;;11.50;3.33;;;17.40;62.80;;;;;;7844518;28;20182;-51
2022/03/12 08:33:00;;;;;;;155.30;11.32;;;17.40;63.00;;;;;;7840235;28;20304;-47
2022/03/12 08:36:45;;;;;;;130.60;11.18;;;17.50;63.40;;;;;;7839922;28;20178;-45
2022/03/12 08:40:31;;;;;;;108.65;7.50;;;17.50;62.90;;;;;;7839416;28;20679;-47
2022/03/12 08:44:17;;;;;;;61.75;7.03;;;17.50;62.70;;;;;;7856747;28;20263;-47
2022/03/12 08:48:02;;;;;;;51.78;6.07;;;17.60;62.70;;;;;;7870387;28;20185;-46
2022/03/12 08:51:54;;;;;;;55.05;5.30;;;17.50;62.80;;;;;;7936101;27;20580;-45
2022/03/12 08:55:40;;;;;;;36.28;5.30;;;17.50;62.70;;;;;;7927896;28;20653;-48
2022/03/12 08:59:25;;;;;;;44.80;5.18;;;17.50;62.70;;;;;;7927213;28;20233;-48
2022/03/12 09:03:14;;;;;;;40.67;4.85;;;17.40;62.40;;;;;;7932609;28;20212;-45
2022/03/12 09:07:00;;;;;;;30.40;4.80;;;17.50;62.40;;;;;;7928117;28;20626;-45
2022/03/12 09:10:46;;;;;;;27.17;4.60;;;17.50;62.10;;;;;;7927368;28;20647;-47
2022/03/12 09:14:34;;;;;;;21.27;5.00;;;17.50;61.80;;;;;;7927470;28;20559;-46
2022/03/12 09:18:23;;;;;;;23.27;4.22;;;17.50;61.50;;;;;;7927359;28;20164;-45
2022/03/12 09:22:09;;;;;;;25.00;4.65;;;17.50;61.20;;;;;;7926861;28;20669;-45
2022/03/12 09:25:54;;;;;;;23.35;4.03;;;17.60;61.20;;;;;;7927065;28;20567;-45
2022/03/12 09:29:40;;;;;;;17.92;4.38;;;17.60;61.10;;;;;;7926625;28;20300;-46
2022/03/12 09:33:25;;;;;;;17.90;4.18;;;17.70;61.80;;;;;;7926816;28;20192;-46
2022/03/12 09:37:11;;;;;;;18.65;3.83;;;17.70;61.00;;;;;;7926851;28;20196;-45
2022/03/12 09:40:56;;;;;;;17.33;3.80;;;17.70;61.00;;;;;;7926622;28;20188;-45
2022/03/12 09:44:42;;;;;;;15.10;3.85;;;17.80;60.80;;;;;;7926555;28;20192;-45
2022/03/12 09:48:28;;;;;;;11.50;3.38;;;17.80;60.70;;;;;;7926429;28;20704;-46
2022/03/12 09:52:13;;;;;;;9.90;3.60;;;17.90;60.70;;;;;;7926100;28;20191;-46
2022/03/12 09:55:59;;;;;;;17.30;3.72;;;18.00;60.60;;;;;;7926316;28;20646;-46
2022/03/12 09:59:44;;;;;;;11.95;3.22;;;18.00;60.80;;;;;;7925459;28;20270;-46
2022/03/12 10:03:30;;;;;;;16.75;4.70;;;18.00;60.70;;;;;;7915629;28;20199;-45
2022/03/12 10:07:15;;;;;;;5.95;3.65;;;18.10;60.50;;;;;;7905445;28;20233;-46
2022/03/12 10:11:01;;;;;;;11.93;2.97;;;18.20;60.50;;;;;;7904717;28;20693;-47
2022/03/12 10:14:48;;;;;;;12.05;3.28;;;18.20;60.20;;;;;;7935353;28;20207;-46
2022/03/12 10:18:34;;;;;;;12.35;4.05;;;18.30;60.00;;;;;;7933053;28;20206;-47
2022/03/12 10:22:19;;;;;;;11.43;3.28;;;18.40;60.00;;;;;;7904149;28;20700;-47
2022/03/12 10:26:04;;;;;;;18.27;3.63;;;18.50;60.00;;;;;;7911948;28;20200;-47
2022/03/12 10:29:50;;;;;;;13.30;3.58;;;18.60;59.90;;;;;;7909022;28;20204;-47
2022/03/12 10:33:39;;;;;;;16.00;3.50;;;18.70;59.70;;;;;;7904153;28;20566;-47
2022/03/12 10:37:27;;;;;;;11.68;3.05;;;18.80;59.50;;;;;;7904037;28;20182;-47
2022/03/12 10:41:14;;;;;;;16.88;2.90;;;19.00;59.60;;;;;;7903661;28;20238;-47
2022/03/12 10:45:10;;;;;;;11.80;3.10;;;19.10;59.50;;;;;;7903775;28;20543;-46
2022/03/12 10:48:58;;;;;;;10.52;2.83;;;19.10;59.30;;;;;;7903434;28;20574;-46
2022/03/12 10:52:49;;;;;;;9.40;3.13;;;19.30;59.20;;;;;;7903611;28;20201;-46
2022/03/12 10:56:46;;;;;;;5.97;2.58;;;19.40;59.10;;;;;;7903647;28;20180;-47
2022/03/12 11:00:38;;;;;;;20.08;3.20;;;19.50;59.00;;;;;;7903114;28;20211;-48
2022/03/12 11:04:30;;;;;;;8.63;2.97;;;19.60;58.90;;;;;;7903231;28;20661;-46
2022/03/12 11:08:27;;;;;;;8.05;3.20;;;19.70;58.80;;;;;;7905871;28;20579;-46
2022/03/12 11:12:31;;;;;;;9.68;2.95;;;19.80;58.80;;;;;;7901657;28;20804;-48
2022/03/12 11:16:31;;;;;;;10.23;3.00;;;19.90;58.60;;;;;;7902927;28;20177;-45
2022/03/12 11:20:23;;;;;;;7.43;2.95;;;19.90;58.50;;;;;;7902420;28;20657;-46
2022/03/12 11:24:22;;;;;;;12.75;2.88;;;20.00;58.40;;;;;;7902498;28;20192;-45
2022/03/12 11:28:19;;;;;;;8.50;2.65;;;20.00;58.40;;;;;;7902127;28;20279;-45
2022/03/12 11:32:09;;;;;;;8.65;2.92;;;20.10;58.60;;;;;;7902181;28;20204;-47
2022/03/12 11:35:59;;;;;;;10.35;2.85;;;20.10;58.60;;;;;;7902159;28;20177;-46
2022/03/12 11:39:52;;;;;;;8.38;2.70;;;20.10;58.60;;;;;;7901787;28;20185;-46
2022/03/12 11:43:40;;;;;;;10.30;2.95;;;20.10;58.40;;;;;;7902016;28;20239;-45
2022/03/12 11:47:28;;;;;;;9.13;2.65;;;20.10;58.40;;;;;;7901764;28;20238;-45
2022/03/12 11:51:20;;;;;;;9.60;3.10;;;20.10;58.40;;;;;;7901335;28;20291;-46
2022/03/12 11:55:17;;;;;;;18.05;5.25;;;20.10;59.00;;;;;;7910734;28;20176;-45
2022/03/12 11:59:02;;;;;;;11.25;4.15;;;20.10;59.30;;;;;;7933371;28;20210;-45
2022/03/12 12:02:48;;;;;;;19.85;5.15;;;20.20;59.20;;;;;;7932920;28;20200;-45
2022/03/12 12:06:34;;;;;;;15.48;4.65;;;20.20;59.10;;;;;;7933239;28;20668;-46
2022/03/12 12:10:25;;;;;;;15.27;4.22;;;20.10;59.00;;;;;;7932742;28;20199;-46
2022/03/12 12:14:10;;;;;;;13.60;4.30;;;20.10;59.00;;;;;;7901242;28;20245;-46
2022/03/12 12:17:56;;;;;;;14.80;4.22;;;20.10;59.00;;;;;;7901625;28;20169;-46
2022/03/12 12:21:41;;;;;;;13.00;3.90;;;20.10;58.90;;;;;;7901048;28;20192;-46
2022/03/12 12:25:32;;;;;;;17.55;4.20;;;20.10;58.90;;;;;;7901063;28;20280;-45
2022/03/12 12:29:50;;;;;;;22.17;4.30;;;20.10;58.90;;;;;;7911591;28;20212;-46
2022/03/12 12:33:37;;;;;;;15.82;3.55;;;20.10;59.40;;;;;;7900748;28;20193;-47
2022/03/12 12:37:40;;;;;;;14.57;3.95;;;20.10;59.00;;;;;;7900815;28;20206;-46
2022/03/12 12:41:49;;;;;;;11.50;3.50;;;20.10;58.90;;;;;;7900288;28;20211;-47
2022/03/12 12:45:43;;;;;;;11.52;3.33;;;20.10;58.90;;;;;;7900587;28;20172;-46
2022/03/12 12:49:32;;;;;;;12.27;3.90;;;20.10;58.80;;;;;;7899983;28;20283;-46
2022/03/12 12:53:27;;;;;;;7.20;3.28;;;20.10;58.70;;;;;;7900188;28;20211;-46
2022/03/12 12:57:13;;;;;;;12.35;3.40;;;20.10;58.70;;;;;;7900415;28;20703;-48
2022/03/12 13:01:02;;;;;;;11.30;3.08;;;20.10;58.70;;;;;;7899902;28;20582;-45
2022/03/12 13:04:49;;;;;;;13.93;3.45;;;20.10;58.70;;;;;;7900267;28;20192;-47
2022/03/12 13:08:45;;;;;;;7.88;2.70;;;20.10;58.70;;;;;;7902076;28;20279;-47
2022/03/12 13:12:41;;;;;;;13.85;2.92;;;20.10;58.60;;;;;;7900507;28;20192;-47
2022/03/12 13:16:27;;;;;;;9.15;3.05;;;20.10;58.60;;;;;;7900108;28;20697;-46
2022/03/12 13:20:36;;;;;;;8.88;3.30;;;20.10;59.20;;;;;;7900009;28;20181;-45
2022/03/12 13:24:22;;;;;;;7.65;2.80;;;20.10;58.60;;;;;;7899921;28;20188;-45
2022/03/12 13:28:07;;;;;;;6.22;3.05;;;20.10;58.40;;;;;;7899947;28;20177;-46
2022/03/12 13:31:56;;;;;;;7.65;3.03;;;20.20;58.20;;;;;;7899421;28;20668;-45
2022/03/12 13:35:42;;;;;;;7.60;3.05;;;20.20;57.90;;;;;;7900962;28;20182;-45
2022/03/12 13:39:28;;;;;;;6.53;2.78;;;20.30;57.80;;;;;;7905723;28;20377;-46
2022/03/12 13:43:14;;;;;;;7.35;3.10;;;20.30;57.90;;;;;;7905701;28;20204;-45
2022/03/12 13:47:00;;;;;;;8.13;3.00;;;20.30;57.90;;;;;;7905500;28;20669;-46
2022/03/12 13:50:46;;;;;;;4.93;2.60;;;20.30;57.90;;;;;;7905063;28;20325;-46
2022/03/12 13:54:31;;;;;;;7.55;3.28;;;20.40;57.90;;;;;;7905346;28;20683;-45
2022/03/12 13:58:19;;;;;;;5.45;2.53;;;20.40;57.80;;;;;;7905015;28;20176;-46
2022/03/12 14:02:12;;;;;;;3.72;2.38;;;20.40;57.60;;;;;;7904992;28;20216;-46
2022/03/12 14:05:57;;;;;;;6.45;2.55;;;20.40;57.50;;;;;;7905101;28;20172;-46
2022/03/12 14:09:46;;;;;;;5.03;3.20;;;20.40;57.30;;;;;;7931233;28;20203;-48
2022/03/12 14:13:40;;;;;;;5.05;2.95;;;20.40;57.30;;;;;;7936773;28;20183;-45
2022/03/12 14:17:29;;;;;;;6.28;2.95;;;20.40;57.10;;;;;;7936622;28;20217;-46
2022/03/12 14:21:15;;;;;;;9.40;3.30;;;20.40;57.10;;;;;;7935909;28;20211;-46
2022/03/12 14:25:05;;;;;;;3.92;3.03;;;20.40;57.00;;;;;;7933086;28;20192;-46
2022/03/12 14:28:54;;;;;;;8.57;3.20;;;20.40;57.00;;;;;;7927122;28;20204;-46
2022/03/12 14:32:39;;;;;;;5.30;2.85;;;20.40;56.90;;;;;;7935450;28;20274;-45
2022/03/12 14:36:25;;;;;;;5.15;2.42;;;20.40;56.80;;;;;;7935704;28;20176;-45
2022/03/12 14:40:11;;;;;;;6.25;2.70;;;20.40;57.30;;;;;;7935398;28;20168;-45
2022/03/12 14:43:56;;;;;;;7.88;3.03;;;20.40;57.10;;;;;;7935578;28;20248;-46
2022/03/12 14:47:43;;;;;;;5.82;2.90;;;20.50;57.30;;;;;;7935238;28;20188;-46
2022/03/12 14:51:28;;;;;;;5.80;2.83;;;20.40;57.50;;;;;;7929946;28;20212;-47
2022/03/12 14:55:16;;;;;;;12.02;3.45;;;20.40;57.80;;;;;;7903508;28;20244;-47
2022/03/12 14:59:02;;;;;;;7.32;3.00;;;20.40;57.60;;;;;;7909164;28;20653;-45
2022/03/12 15:03:02;;;;;;;7.50;3.15;;;20.40;57.50;;;;;;7905665;28;20866;-48
2022/03/12 15:06:49;;;;;;;8.98;3.10;;;20.40;57.80;;;;;;7903101;28;20544;-47
2022/03/12 15:10:36;;;;;;;7.97;3.13;;;20.40;57.90;;;;;;7904569;28;20287;-46
2022/03/12 15:14:28;;;;;;;11.70;3.05;;;20.40;57.80;;;;;;7903640;28;20203;-46
2022/03/12 15:18:14;;;;;;;8.85;3.15;;;20.40;57.70;;;;;;7902830;28;20211;-45
2022/03/12 15:22:00;;;;;;;7.47;3.20;;;20.50;57.80;;;;;;7902481;28;20200;-46
2022/03/12 15:25:54;;;;;;;5.38;2.90;;;20.50;57.80;;;;;;7913776;28;20664;-46
2022/03/12 15:29:40;;;;;;;9.32;3.20;;;20.50;57.70;;;;;;7905041;28;20204;-46
2022/03/12 15:33:29;;;;;;;5.65;3.10;;;20.50;57.80;;;;;;7902393;28;20310;-46
2022/03/12 15:37:38;;;;;;;6.82;3.03;;;20.60;57.80;;;;;;7902356;28;20177;-46
2022/03/12 15:41:26;;;;;;;4.00;2.58;;;20.60;57.70;;;;;;7901852;28;20176;-45
2022/03/12 15:45:13;;;;;;;6.88;3.30;;;20.60;57.70;;;;;;7910088;28;20177;-47
2022/03/12 15:49:01;;;;;;;12.40;3.40;;;20.60;57.80;;;;;;7901818;28;20743;-46
2022/03/12 15:52:49;;;;;;;28.80;4.05;;;20.70;58.10;;;;;;7901586;28;20595;-46
2022/03/12 15:56:35;;;;;;;29.58;5.05;;;20.70;58.10;;;;;;7902059;28;20200;-46
2022/03/12 16:00:23;;;;;;;21.30;3.80;;;20.70;57.80;;;;;;7901055;28;20233;-47
2022/03/12 16:04:09;;;;;;;24.25;3.90;;;20.70;58.00;;;;;;7901475;28;20280;-47
2022/03/12 16:07:54;;;;;;;20.90;3.35;;;20.80;58.00;;;;;;7901567;28;20263;-46
2022/03/12 16:11:41;;;;;;;10.40;3.25;;;20.70;58.00;;;;;;7901003;28;20200;-46
2022/03/12 16:15:26;;;;;;;16.52;3.90;;;20.80;58.00;;;;;;7901458;28;20173;-47
2022/03/12 16:19:18;;;;;;;9.45;3.17;;;20.70;58.00;;;;;;7900892;28;20265;-46
2022/03/12 16:23:03;;;;;;;15.88;3.75;;;20.80;58.10;;;;;;7899709;28;20216;-46
2022/03/12 16:26:49;;;;;;;7.22;3.30;;;20.70;58.10;;;;;;7900912;28;20646;-46
2022/03/12 16:30:34;;;;;;;10.52;3.70;;;20.70;58.20;;;;;;7905939;28;20299;-47
2022/03/12 16:34:20;;;;;;;10.82;3.60;;;20.70;58.20;;;;;;7900696;28;20227;-47
2022/03/12 16:38:06;;;;;;;18.33;3.35;;;20.70;58.10;;;;;;7900679;28;20256;-46
2022/03/12 16:41:52;;;;;;;7.53;3.50;;;20.70;58.00;;;;;;7910079;28;20719;-48
2022/03/12 16:45:42;;;;;;;8.15;3.72;;;20.70;58.10;;;;;;7930957;28;20211;-45
2022/03/12 16:49:30;;;;;;;9.63;3.40;;;20.60;58.00;;;;;;7912236;28;20251;-46
2022/03/12 16:53:16;;;;;;;14.35;4.20;;;20.60;58.10;;;;;;7932100;28;20199;-49
2022/03/12 16:57:02;;;;;;;18.90;4.45;;;20.70;58.30;;;;;;7932073;28;20204;-49
2022/03/12 17:00:48;;;;;;;20.17;4.05;;;20.70;58.30;;;;;;7926593;28;20192;-46
2022/03/12 17:04:34;;;;;;;12.57;3.83;;;20.60;58.10;;;;;;7931747;28;20825;-49
2022/03/12 17:08:22;;;;;;;20.15;4.38;;;20.60;58.00;;;;;;7931863;28;20208;-47
2022/03/12 17:12:08;;;;;;;10.73;3.78;;;20.60;58.00;;;;;;7935383;28;20215;-46
2022/03/12 17:15:54;;;;;;;16.08;3.47;;;20.60;57.90;;;;;;7938538;28;20178;-45
2022/03/12 17:19:39;;;;;;;23.67;4.00;;;20.60;58.00;;;;;;7937688;28;20601;-45
2022/03/12 17:23:28;;;;;;;12.57;3.35;;;20.60;57.90;;;;;;7937733;28;20203;-46
2022/03/12 17:27:13;;;;;;;13.05;4.10;;;20.50;57.80;;;;;;7937696;28;20255;-46
2022/03/12 17:30:59;;;;;;;16.90;3.63;;;20.50;57.70;;;;;;7937240;28;20214;-45
2022/03/12 17:34:44;;;;;;;7.95;3.38;;;20.50;57.70;;;;;;7937381;28;20206;-46
2022/03/12 17:38:29;;;;;;;7.50;3.50;;;20.50;57.80;;;;;;7937351;28;20181;-45
2022/03/12 17:42:16;;;;;;;12.90;3.60;;;20.50;57.70;;;;;;7936968;28;20222;-47
2022/03/12 17:46:04;;;;;;;8.80;3.90;;;20.50;57.80;;;;;;7937269;28;20180;-45
2022/03/12 17:49:50;;;;;;;10.32;3.60;;;20.50;57.80;;;;;;7936696;28;20204;-45
2022/03/12 17:53:36;;;;;;;6.75;3.17;;;20.50;57.80;;;;;;7936817;28;20275;-45
2022/03/12 17:57:21;;;;;;;9.82;3.65;;;20.50;57.80;;;;;;7936892;28;20176;-47
2022/03/12 18:01:07;;;;;;;7.95;3.08;;;20.50;57.90;;;;;;7936482;28;20207;-45
2022/03/12 18:04:53;;;;;;;7.22;3.35;;;20.50;57.90;;;;;;7936498;28;20200;-46
2022/03/12 18:08:38;;;;;;;13.35;3.95;;;20.40;57.80;;;;;;7936457;28;20548;-45
2022/03/12 18:12:26;;;;;;;4.78;2.92;;;20.50;57.90;;;;;;7935959;28;20622;-46
2022/03/12 18:16:12;;;;;;;4.45;3.30;;;20.40;57.90;;;;;;7936469;28;20168;-46
2022/03/12 18:19:58;;;;;;;9.65;3.50;;;20.40;57.90;;;;;;7936316;28;20183;-45
2022/03/12 18:23:45;;;;;;;9.15;3.40;;;20.40;57.90;;;;;;7935469;28;20204;-46
2022/03/12 18:27:30;;;;;;;7.45;3.05;;;20.40;57.90;;;;;;7936159;27;20192;-45
2022/03/12 18:31:18;;;;;;;6.05;3.28;;;20.40;58.00;;;;;;7935493;28;20208;-46
2022/03/12 18:35:04;;;;;;;6.57;3.33;;;20.40;58.00;;;;;;7935903;28;20191;-46
2022/03/12 18:38:50;;;;;;;6.53;3.53;;;20.40;58.00;;;;;;7935974;28;20183;-48
2022/03/12 18:42:36;;;;;;;5.38;3.42;;;20.40;58.00;;;;;;7935274;28;20250;-48
2022/03/12 18:46:22;;;;;;;3.78;3.03;;;20.40;58.00;;;;;;7935336;28;20543;-47
2022/03/12 18:50:08;;;;;;;6.18;3.25;;;20.40;57.90;;;;;;7935116;28;20211;-47
2022/03/12 18:53:54;;;;;;;6.28;3.42;;;20.40;58.70;;;;;;7935576;28;20204;-46
2022/03/12 18:57:40;;;;;;;7.55;3.17;;;20.30;58.00;;;;;;7935524;28;20309;-47
2022/03/12 19:01:25;;;;;;;5.85;3.15;;;20.40;58.10;;;;;;7934777;28;20571;-46
2022/03/12 19:05:12;;;;;;;8.63;3.55;;;20.40;58.10;;;;;;7934964;28;20655;-50
2022/03/12 19:08:57;;;;;;;6.40;3.80;;;20.30;58.20;;;;;;7934565;28;20589;-46
2022/03/12 19:12:43;;;;;;;6.53;2.85;;;20.30;58.20;;;;;;7934694;28;20249;-45
2022/03/12 19:16:29;;;;;;;6.35;3.30;;;20.40;58.20;;;;;;7935618;28;20198;-45
2022/03/12 19:20:16;;;;;;;7.00;3.83;;;20.40;58.20;;;;;;7934012;28;20201;-46
2022/03/12 19:24:02;;;;;;;8.32;3.40;;;20.30;58.20;;;;;;7934113;28;20286;-45
2022/03/12 19:27:49;;;;;;;7.80;3.38;;;20.40;58.30;;;;;;7934045;27;20587;-46
2022/03/12 19:31:35;;;;;;;5.65;3.53;;;20.40;58.30;;;;;;7933708;28;20220;-46
2022/03/12 19:35:22;;;;;;;6.13;3.70;;;20.40;58.30;;;;;;7932987;28;20168;-45
2022/03/12 19:39:07;;;;;;;5.75;3.50;;;20.40;58.40;;;;;;7933475;28;20195;-46